Time;durP1;ratioP1;P1;durP2;ratioP2;P2;SDS_P1;SDS_P2;PMS_P1;PMS_P2;Temp;Humidity;BMP_temperature;BMP_pressure;BME280_temperature;BME280_humidity;BME280_pressure;Samples;Min_cycle;Max_cycle;Signal;HPM_P1;HPM_P2
2021/12/01 00:02:05;;;;;;;7.72;2.70;;;;;;;;;;5102922;28;20115;-94
2021/12/01 00:04:30;;;;;;;6.93;2.33;;;;;;;;;;5105741;28;20551;-95
2021/12/01 00:06:55;;;;;;;7.60;2.00;;;;;;;;;;5114384;27;20031;-95
2021/12/01 00:09:20;;;;;;;5.80;1.50;;;;;;;;;;5104675;27;20061;-94
2021/12/01 00:11:46;;;;;;;6.00;1.42;;;;;;;;;;5107027;28;20027;-94
2021/12/01 00:14:11;;;;;;;5.80;1.30;;;;;;;;;;5099936;28;20043;-93
2021/12/01 00:16:36;;;;;;;3.57;1.20;;;;;;;;;;5098270;27;20016;-94
2021/12/01 00:19:01;;;;;;;4.60;1.48;;;;;;;;;;5101086;28;20272;-94
2021/12/01 00:21:27;;;;;;;6.35;1.45;;;;;;;;;;5100261;28;20034;-95
2021/12/01 00:23:52;;;;;;;4.57;1.02;;;;;;;;;;5102663;28;20011;-93
2021/12/01 00:26:17;;;;;;;3.17;0.93;;;;;;;;;;5107695;28;20024;-95
2021/12/01 00:28:43;;;;;;;3.50;0.80;;;;;;;;;;5110543;28;20031;-96
2021/12/01 00:31:09;;;;;;;3.53;1.10;;;;;;;;;;5112847;28;20026;-96
2021/12/01 00:33:35;;;;;;;4.03;1.00;;;;;;;;;;5107790;27;20145;-95
2021/12/01 00:36:00;;;;;;;4.55;1.08;;;;;;;;;;5104741;28;20808;-93
2021/12/01 00:38:28;;;;;;;5.38;1.27;;;;;;;;;;5110325;27;20039;-96
2021/12/01 00:40:53;;;;;;;4.57;0.98;;;;;;;;;;5097793;28;20811;-95
2021/12/01 00:43:19;;;;;;;5.70;1.23;;;;;;;;;;5106354;27;20107;-94
2021/12/01 00:45:55;;;;;;;4.43;0.98;;;;;;;;;;5096540;28;20046;-96
2021/12/01 00:48:21;;;;;;;6.93;1.10;;;;;;;;;;5104550;28;20087;-96
2021/12/01 00:50:46;;;;;;;7.45;1.00;;;;;;;;;;5104429;28;20507;-94
2021/12/01 00:53:12;;;;;;;3.80;0.80;;;;;;;;;;5109750;28;20427;-95
2021/12/01 00:55:37;;;;;;;8.32;1.20;;;;;;;;;;5108267;28;20447;-96
2021/12/01 00:58:03;;;;;;;5.18;0.68;;;;;;;;;;5113458;28;20012;-96
2021/12/01 01:00:29;;;;;;;8.73;0.98;;;;;;;;;;5105125;28;20023;-96
2021/12/01 01:02:56;;;;;;;6.28;0.98;;;;;;;;;;5096195;28;20031;-95
2021/12/01 01:05:21;;;;;;;3.85;0.82;;;;;;;;;;5099206;28;20024;-96
2021/12/01 01:07:47;;;;;;;5.07;0.90;;;;;;;;;;5095505;28;20128;-96
2021/12/01 01:18:18;;;;;;;3.42;0.70;;;;;;;;;;5094885;28;20440;-96
2021/12/01 01:20:47;;;;;;;1.98;0.40;;;;;;;;;;5091306;28;20035;-95
2021/12/01 01:23:12;;;;;;;2.97;0.60;;;;;;;;;;5107257;28;20035;-95
2021/12/01 01:25:37;;;;;;;2.97;0.60;;;;;;;;;;5105434;28;20020;-96
2021/12/01 01:28:03;;;;;;;7.15;0.77;;;;;;;;;;5100936;28;20016;-96
2021/12/01 01:30:28;;;;;;;4.35;0.43;;;;;;;;;;5089935;28;20032;-95
2021/12/01 01:32:54;;;;;;;6.65;0.80;;;;;;;;;;5097128;28;20016;-96
2021/12/01 01:35:19;;;;;;;8.40;1.10;;;;;;;;;;5089510;28;20387;-95
2021/12/01 01:37:45;;;;;;;3.78;0.70;;;;;;;;;;5094659;28;20016;-94
2021/12/01 01:40:10;;;;;;;7.63;1.00;;;;;;;;;;5097504;28;20035;-96
2021/12/01 01:42:35;;;;;;;7.30;0.93;;;;;;;;;;5090519;28;20028;-95
2021/12/01 01:45:03;;;;;;;5.07;0.90;;;;;;;;;;5094371;28;20028;-94
2021/12/01 01:47:29;;;;;;;3.95;0.73;;;;;;;;;;5124791;27;20070;-95
2021/12/01 01:49:59;;;;;;;3.00;0.90;;;;;;;;;;5095282;28;20456;-96
2021/12/01 01:52:29;;;;;;;5.65;1.10;;;;;;;;;;5093641;28;20024;-96
2021/12/01 01:54:54;;;;;;;5.70;1.00;;;;;;;;;;5102396;28;20030;-96
2021/12/01 01:57:19;;;;;;;6.22;1.30;;;;;;;;;;5093685;28;20095;-96
2021/12/01 01:59:45;;;;;;;5.03;0.90;;;;;;;;;;5093972;28;20024;-96
2021/12/01 02:02:10;;;;;;;9.77;1.42;;;;;;;;;;5091689;28;20054;-96
2021/12/01 02:04:35;;;;;;;11.68;1.23;;;;;;;;;;5095307;28;20028;-95
2021/12/01 02:07:09;;;;;;;6.72;1.45;;;;;;;;;;5104493;28;20026;-96
2021/12/01 02:09:34;;;;;;;10.93;1.05;;;;;;;;;;5096989;28;20022;-94
2021/12/01 02:12:00;;;;;;;4.93;0.95;;;;;;;;;;5092597;28;20032;-96
2021/12/01 02:14:26;;;;;;;4.70;0.70;;;;;;;;;;5093037;28;20024;-95
2021/12/01 02:16:52;;;;;;;6.55;1.67;;;;;;;;;;5091797;28;20016;-96
2021/12/01 02:19:18;;;;;;;7.03;1.15;;;;;;;;;;5096090;28;20020;-96
2021/12/01 02:21:43;;;;;;;5.78;1.10;;;;;;;;;;5109671;28;20362;-96
2021/12/01 02:24:36;;;;;;;5.75;0.85;;;;;;;;;;5105064;28;20034;-96
2021/12/01 02:27:02;;;;;;;2.88;0.80;;;;;;;;;;5105122;28;20086;-96
2021/12/01 02:29:27;;;;;;;10.50;1.35;;;;;;;;;;5103166;28;20032;-96
2021/12/01 02:31:53;;;;;;;5.85;0.90;;;;;;;;;;5098965;28;20031;-95
2021/12/01 02:34:20;;;;;;;7.28;0.90;;;;;;;;;;5110742;28;20023;-96
2021/12/01 02:36:47;;;;;;;6.63;0.75;;;;;;;;;;5098043;28;20012;-96
2021/12/01 02:39:15;;;;;;;7.03;0.88;;;;;;;;;;5102534;28;20024;-96
2021/12/01 02:41:41;;;;;;;3.78;0.57;;;;;;;;;;5101486;28;20032;-96
2021/12/01 02:44:07;;;;;;;1.02;0.30;;;;;;;;;;5102700;28;20028;-96
2021/12/01 02:46:34;;;;;;;5.60;0.68;;;;;;;;;;5109336;28;20000;-96
2021/12/01 02:49:00;;;;;;;2.95;0.38;;;;;;;;;;5104163;28;20082;-96
2021/12/01 02:51:28;;;;;;;0.68;0.28;;;;;;;;;;5127247;27;20128;-96
2021/12/01 02:53:57;;;;;;;0.30;0.20;;;;;;;;;;5101783;28;20062;-96
2021/12/01 02:56:23;;;;;;;0.75;0.25;;;;;;;;;;5113587;28;20021;-96
2021/12/01 02:58:49;;;;;;;0.65;0.20;;;;;;;;;;5104082;28;20007;-96
2021/12/01 03:01:17;;;;;;;0.93;0.28;;;;;;;;;;5099291;28;20023;-95
2021/12/01 03:03:43;;;;;;;0.82;0.35;;;;;;;;;;5101748;28;21509;-96
2021/12/01 03:06:09;;;;;;;1.10;0.28;;;;;;;;;;5101953;28;20035;-95
2021/12/01 03:08:35;;;;;;;1.20;0.35;;;;;;;;;;5105947;28;20016;-96
2021/12/01 03:11:01;;;;;;;0.10;0.10;;;;;;;;;;5101970;28;20552;-96
2021/12/01 03:13:26;;;;;;;0.30;0.20;;;;;;;;;;5112599;28;20016;-96
2021/12/01 03:15:52;;;;;;;0.25;0.10;;;;;;;;;;5110666;28;20019;-96
2021/12/01 03:18:19;;;;;;;0.68;0.20;;;;;;;;;;5111707;28;20055;-96
2021/12/01 03:20:54;;;;;;;0.65;0.30;;;;;;;;;;5116245;28;20024;-94
2021/12/01 03:23:19;;;;;;;0.20;0.17;;;;;;;;;;5112639;28;20054;-96
2021/12/01 03:25:45;;;;;;;0.63;0.20;;;;;;;;;;5095936;28;20024;-96
2021/12/01 03:28:10;;;;;;;0.75;0.30;;;;;;;;;;5108701;28;20008;-96
2021/12/01 03:30:39;;;;;;;0.63;0.30;;;;;;;;;;5103196;28;20143;-96
2021/12/01 03:33:07;;;;;;;0.68;0.30;;;;;;;;;;5137993;27;20020;-96
2021/12/01 03:35:41;;;;;;;0.60;0.30;;;;;;;;;;5111337;28;20048;-96
2021/12/01 03:38:07;;;;;;;0.63;0.30;;;;;;;;;;5116684;28;20012;-96
2021/12/01 03:40:41;;;;;;;0.73;0.30;;;;;;;;;;5112058;28;20055;-96
2021/12/01 03:43:07;;;;;;;0.30;0.20;;;;;;;;;;5107053;28;20059;-96
2021/12/01 03:45:32;;;;;;;1.25;0.20;;;;;;;;;;5098841;28;20356;-96
2021/12/01 03:47:58;;;;;;;0.45;0.20;;;;;;;;;;5106147;28;20062;-96
2021/12/01 03:50:26;;;;;;;0.17;0.15;;;;;;;;;;5106041;28;20082;-96
2021/12/01 03:52:51;;;;;;;0.47;0.20;;;;;;;;;;5109646;28;20019;-96
2021/12/01 03:55:16;;;;;;;0.38;0.20;;;;;;;;;;5106474;28;19996;-96
2021/12/01 03:57:43;;;;;;;0.65;0.20;;;;;;;;;;5106381;28;20694;-95
2021/12/01 04:00:19;;;;;;;0.10;0.10;;;;;;;;;;5101651;28;20099;-96
2021/12/01 04:02:53;;;;;;;0.32;0.20;;;;;;;;;;5140078;27;20020;-95
2021/12/01 04:05:18;;;;;;;0.85;0.30;;;;;;;;;;5112854;28;20040;-96
2021/12/01 04:07:44;;;;;;;1.05;0.30;;;;;;;;;;5105469;28;20045;-96
2021/12/01 04:10:13;;;;;;;0.25;0.20;;;;;;;;;;5113365;28;20471;-96
2021/12/01 04:12:39;;;;;;;0.30;0.20;;;;;;;;;;5098084;28;20016;-95
2021/12/01 04:15:13;;;;;;;0.20;0.20;;;;;;;;;;5116060;28;20024;-96
2021/12/01 04:17:40;;;;;;;0.25;0.20;;;;;;;;;;5109478;28;20027;-96
2021/12/01 04:20:06;;;;;;;0.47;0.20;;;;;;;;;;5113778;28;20024;-96
2021/12/01 04:22:32;;;;;;;0.90;0.30;;;;;;;;;;5106795;28;20016;-96
2021/12/01 04:25:00;;;;;;;0.80;0.30;;;;;;;;;;5104709;28;20363;-96
2021/12/01 04:27:27;;;;;;;1.48;0.32;;;;;;;;;;5136832;27;20019;-96
2021/12/01 04:29:53;;;;;;;2.22;0.32;;;;;;;;;;5101352;28;20012;-96
2021/12/01 04:32:32;;;;;;;2.15;0.50;;;;;;;;;;5106955;28;20098;-96
2021/12/01 04:34:58;;;;;;;0.30;0.22;;;;;;;;;;5117863;28;20046;-95
2021/12/01 04:37:24;;;;;;;0.43;0.20;;;;;;;;;;5111751;28;20038;-96
2021/12/01 04:39:55;;;;;;;0.77;0.40;;;;;;;;;;5104989;28;20039;-96
2021/12/01 04:42:28;;;;;;;0.77;0.30;;;;;;;;;;5119642;28;20107;-96
2021/12/01 04:44:54;;;;;;;1.92;0.50;;;;;;;;;;5118487;28;20784;-96
2021/12/01 04:47:26;;;;;;;1.13;0.30;;;;;;;;;;5109377;28;20029;-96
2021/12/01 04:49:54;;;;;;;1.90;0.50;;;;;;;;;;5113095;28;20038;-96
2021/12/01 04:52:22;;;;;;;1.38;0.43;;;;;;;;;;5115722;28;20077;-96
2021/12/01 04:54:50;;;;;;;1.45;0.43;;;;;;;;;;5111611;28;20032;-96
2021/12/01 04:57:16;;;;;;;2.85;0.60;;;;;;;;;;5118411;28;20023;-96
2021/12/01 04:59:41;;;;;;;1.98;0.47;;;;;;;;;;5106219;28;20020;-96
2021/12/01 05:02:08;;;;;;;2.10;0.50;;;;;;;;;;5116255;27;20018;-96
2021/12/01 05:04:35;;;;;;;2.88;0.60;;;;;;;;;;5111496;28;20115;-96
2021/12/01 05:07:00;;;;;;;2.33;0.60;;;;;;;;;;5110292;28;20064;-96
2021/12/01 05:09:26;;;;;;;4.00;0.60;;;;;;;;;;5107824;28;20039;-96
2021/12/01 05:11:57;;;;;;;1.38;0.35;;;;;;;;;;5106820;28;20020;-96
2021/12/01 05:14:25;;;;;;;3.35;0.60;;;;;;;;;;5114039;28;20015;-96
2021/12/01 05:16:51;;;;;;;5.00;0.70;;;;;;;;;;5118007;28;20023;-95
2021/12/01 05:19:23;;;;;;;4.63;0.80;;;;;;;;;;5114001;28;20034;-96
2021/12/01 05:21:49;;;;;;;3.92;0.70;;;;;;;;;;5095704;22;20044;-96
2021/12/01 05:24:19;;;;;;;3.97;0.68;;;;;;;;;;5052670;28;20033;-96
2021/12/01 05:27:22;;;;;;;4.65;0.80;;;;;;;;;;5051572;28;20045;-96
2021/12/01 05:29:50;;;;;;;3.65;0.70;;;;;;;;;;5051671;28;20009;-96
2021/12/01 05:32:16;;;;;;;5.68;0.85;;;;;;;;;;5048735;28;20029;-96
2021/12/01 05:34:55;;;;;;;4.47;0.80;;;;;;;;;;5049005;28;20029;-96
2021/12/01 05:37:23;;;;;;;10.13;0.70;;;;;;;;;;5057716;28;20028;-96
2021/12/01 05:39:48;;;;;;;7.30;1.27;;;;;;;;;;5041845;28;20033;-96
2021/12/01 05:42:16;;;;;;;3.28;0.63;;;;;;;;;;5046917;28;20355;-96
2021/12/01 05:44:42;;;;;;;5.35;1.00;;;;;;;;;;5050713;28;20026;-96
2021/12/01 05:47:13;;;;;;;3.05;0.70;;;;;;;;;;5045729;28;20109;-96
2021/12/01 05:50:00;;;;;;;4.20;0.70;;;;;;;;;;5045504;28;20184;-96
2021/12/01 05:52:28;;;;;;;4.97;0.95;;;;;;;;;;5045728;28;20013;-96
2021/12/01 05:55:05;;;;;;;8.75;1.15;;;;;;;;;;5054856;28;20033;-96
2021/12/01 05:57:32;;;;;;;9.95;1.20;;;;;;;;;;5056040;28;20026;-96
2021/12/01 06:00:07;;;;;;;6.85;1.20;;;;;;;;;;5045106;28;20483;-96
2021/12/01 06:02:49;;;;;;;8.98;1.10;;;;;;;;;;5047390;28;20040;-96
2021/12/01 06:05:15;;;;;;;5.10;0.93;;;;;;;;;;5038676;28;20041;-96
2021/12/01 06:07:41;;;;;;;12.32;1.20;;;;;;;;;;5050674;28;20018;-96
2021/12/01 06:10:19;;;;;;;9.40;1.20;;;;;;;;;;5049797;28;20163;-96
2021/12/01 06:12:54;;;;;;;16.23;1.63;;;;;;;;;;5079302;22;20765;-96
2021/12/01 06:15:20;;;;;;;10.32;1.30;;;;;;;;;;5007611;28;20021;-96
2021/12/01 06:17:48;;;;;;;8.68;1.58;;;;;;;;;;5022669;28;20050;-96
2021/12/01 06:20:14;;;;;;;10.98;1.55;;;;;;;;;;5011627;28;20026;-96
2021/12/01 06:22:41;;;;;;;9.50;1.55;;;;;;;;;;5016241;28;20108;-96
2021/12/01 06:25:06;;;;;;;10.48;1.38;;;;;;;;;;5004234;28;20026;-96
2021/12/01 06:27:32;;;;;;;11.20;1.75;;;;;;;;;;5005058;28;20471;-96
2021/12/01 06:29:57;;;;;;;9.68;1.20;;;;;;;;;;5010967;28;20025;-96
2021/12/01 06:32:23;;;;;;;12.68;1.58;;;;;;;;;;5015009;28;20021;-96
2021/12/01 06:34:49;;;;;;;17.77;2.08;;;;;;;;;;5013231;28;20028;-96
2021/12/01 06:37:15;;;;;;;15.18;2.40;;;;;;;;;;5017811;28;20026;-96
2021/12/01 06:39:42;;;;;;;9.95;1.65;;;;;;;;;;5019372;28;20088;-96
2021/12/01 06:42:17;;;;;;;12.82;2.00;;;;;;;;;;5014598;28;20018;-96
2021/12/01 06:44:44;;;;;;;13.02;1.60;;;;;;;;;;5009882;28;20045;-96
2021/12/01 06:47:10;;;;;;;13.02;1.98;;;;;;;;;;5025182;28;20037;-96
2021/12/01 06:49:35;;;;;;;12.05;1.60;;;;;;;;;;5001650;28;20363;-96
2021/12/01 06:52:00;;;;;;;11.60;2.17;;;;;;;;;;5012743;28;20034;-96
2021/12/01 06:54:26;;;;;;;11.20;1.73;;;;;;;;;;5013561;28;20025;-96
2021/12/01 06:56:51;;;;;;;8.93;1.20;;;;;;;;;;5006890;28;20022;-95
2021/12/01 06:59:19;;;;;;;16.77;2.38;;;;;;;;;;5009331;28;20018;-96
2021/12/01 07:01:45;;;;;;;13.63;2.45;;;;;;;;;;5009910;28;20066;-96
2021/12/01 07:04:12;;;;;;;11.10;1.75;;;;;;;;;;5011142;28;20025;-95
2021/12/01 07:06:37;;;;;;;12.30;1.63;;;;;;;;;;5010539;28;20465;-96
2021/12/01 07:09:03;;;;;;;11.40;1.98;;;;;;;;;;5001436;28;20065;-95
2021/12/01 07:11:28;;;;;;;12.20;2.30;;;;;;;;;;5002139;28;20474;-96
2021/12/01 07:13:55;;;;;;;10.05;1.80;;;;;;;;;;5003697;28;20054;-96
2021/12/01 07:16:20;;;;;;;10.85;1.50;;;;;;;;;;5006731;28;20010;-96
2021/12/01 07:18:45;;;;;;;9.43;1.42;;;;;;;;;;5009415;28;20061;-96
2021/12/01 07:21:11;;;;;;;9.70;1.75;;;;;;;;;;5005542;28;20026;-96
2021/12/01 07:23:37;;;;;;;8.18;2.22;;;;;;;;;;5002324;28;20030;-96
2021/12/01 07:26:03;;;;;;;8.85;1.38;;;;;;;;;;5006727;28;20033;-96
2021/12/01 07:28:29;;;;;;;8.85;1.35;;;;;;;;;;5001852;28;20042;-96
2021/12/01 07:31:04;;;;;;;7.32;1.05;;;;;;;;;;5002887;28;20033;-96
2021/12/01 07:33:33;;;;;;;9.70;1.50;;;;;;;;;;5012357;28;20105;-96
2021/12/01 07:35:59;;;;;;;9.18;1.50;;;;;;;;;;4999736;28;20026;-96
2021/12/01 07:38:25;;;;;;;11.60;2.00;;;;;;;;;;5008862;28;20006;-95
2021/12/01 07:40:50;;;;;;;9.75;1.42;;;;;;;;;;5012330;28;20032;-96
2021/12/01 07:43:15;;;;;;;10.60;1.55;;;;;;;;;;5011954;28;20018;-95
2021/12/01 07:45:44;;;;;;;11.10;1.60;;;;;;;;;;5000025;28;20025;-96
2021/12/01 07:48:13;;;;;;;9.75;1.77;;;;;;;;;;5004198;28;20061;-96
2021/12/01 07:50:39;;;;;;;10.18;2.28;;;;;;;;;;5007200;28;20018;-96
2021/12/01 07:53:06;;;;;;;10.25;1.67;;;;;;;;;;5010116;28;20682;-96
2021/12/01 07:55:32;;;;;;;11.57;1.52;;;;;;;;;;5004398;28;20148;-96
2021/12/01 07:57:57;;;;;;;13.38;1.80;;;;;;;;;;5001662;28;20057;-96
2021/12/01 08:00:22;;;;;;;7.93;1.05;;;;;;;;;;5004540;28;20084;-96
2021/12/01 08:02:47;;;;;;;13.60;1.40;;;;;;;;;;5000969;28;20072;-96
2021/12/01 08:05:18;;;;;;;7.93;1.33;;;;;;;;;;4999177;28;20029;-96
2021/12/01 08:07:44;;;;;;;7.15;1.50;;;;;;;;;;4998417;28;20026;-96
2021/12/01 08:10:10;;;;;;;12.82;1.90;;;;;;;;;;5000424;28;20030;-96
2021/12/01 08:12:36;;;;;;;11.38;1.30;;;;;;;;;;5001960;28;20050;-95
2021/12/01 08:15:05;;;;;;;11.00;1.45;;;;;;;;;;5009951;28;20052;-95
2021/12/01 08:17:30;;;;;;;9.48;1.20;;;;;;;;;;5007908;28;20034;-96
2021/12/01 08:19:58;;;;;;;8.27;1.35;;;;;;;;;;5004843;28;20037;-94
2021/12/01 08:22:25;;;;;;;11.63;2.13;;;;;;;;;;4994042;28;20024;-96
2021/12/01 08:24:54;;;;;;;7.75;1.23;;;;;;;;;;5000452;28;20072;-96
2021/12/01 08:27:22;;;;;;;11.57;1.40;;;;;;;;;;5009709;28;20065;-96
2021/12/01 08:29:59;;;;;;;11.00;1.42;;;;;;;;;;5000619;28;20022;-94
2021/12/01 08:32:32;;;;;;;11.63;2.67;;;;;;;;;;5003534;28;20124;-95
2021/12/01 08:34:57;;;;;;;12.30;1.65;;;;;;;;;;5000974;28;20033;-96
2021/12/01 08:37:23;;;;;;;10.98;1.63;;;;;;;;;;5007383;28;20025;-95
2021/12/01 08:39:49;;;;;;;9.60;1.50;;;;;;;;;;5005385;28;20414;-96
2021/12/01 08:42:18;;;;;;;11.27;1.50;;;;;;;;;;4999142;28;20129;-96
2021/12/01 08:44:48;;;;;;;7.57;1.45;;;;;;;;;;5011001;28;20030;-96
2021/12/01 08:47:20;;;;;;;9.98;1.92;;;;;;;;;;5013574;28;20073;-95
2021/12/01 08:49:52;;;;;;;9.45;1.52;;;;;;;;;;5007796;28;20034;-94
2021/12/01 08:52:18;;;;;;;8.75;1.63;;;;;;;;;;5006470;28;20052;-95
2021/12/01 08:54:43;;;;;;;11.18;2.00;;;;;;;;;;5013023;28;20034;-96
2021/12/01 08:57:34;;;;;;;12.73;1.90;;;;;;;;;;5001151;28;20030;-95
2021/12/01 09:00:04;;;;;;;10.60;1.38;;;;;;;;;;5018538;28;20021;-96
2021/12/01 09:02:30;;;;;;;12.30;1.70;;;;;;;;;;5009583;28;20381;-96
2021/12/01 09:04:55;;;;;;;12.05;1.63;;;;;;;;;;5016014;28;20030;-96
2021/12/01 09:07:20;;;;;;;13.63;1.58;;;;;;;;;;5012995;28;20089;-96
2021/12/01 09:09:49;;;;;;;9.10;1.67;;;;;;;;;;5013824;28;20129;-95
2021/12/01 09:12:14;;;;;;;16.98;2.00;;;;;;;;;;5012706;28;20037;-96
2021/12/01 09:14:40;;;;;;;16.30;2.10;;;;;;;;;;5008410;28;20042;-96
2021/12/01 09:17:10;;;;;;;9.63;1.35;;;;;;;;;;5007900;28;20026;-95
2021/12/01 09:19:35;;;;;;;10.40;2.13;;;;;;;;;;5004242;28;20048;-96
2021/12/01 09:22:03;;;;;;;12.98;2.13;;;;;;;;;;5010136;28;20415;-96
2021/12/01 09:24:39;;;;;;;11.70;1.25;;;;;;;;;;4999580;28;20030;-96
2021/12/01 09:27:04;;;;;;;8.68;1.45;;;;;;;;;;5008428;28;20474;-96
2021/12/01 09:29:30;;;;;;;13.98;2.28;;;;;;;;;;5003814;28;20036;-96
2021/12/01 09:31:55;;;;;;;10.48;1.50;;;;;;;;;;5009992;28;20026;-96
2021/12/01 09:34:21;;;;;;;12.73;1.48;;;;;;;;;;5008237;28;20280;-95
2021/12/01 09:36:46;;;;;;;9.18;1.52;;;;;;;;;;5006574;28;20017;-96
2021/12/01 09:39:11;;;;;;;8.52;1.15;;;;;;;;;;5008685;28;20021;-96
2021/12/01 09:41:37;;;;;;;9.70;1.48;;;;;;;;;;5009577;28;20091;-96
2021/12/01 09:44:02;;;;;;;4.75;1.02;;;;;;;;;;5010387;28;20070;-96
2021/12/01 09:46:30;;;;;;;8.45;1.52;;;;;;;;;;5004481;28;20044;-96
2021/12/01 09:48:56;;;;;;;11.77;1.25;;;;;;;;;;5008747;28;20123;-95
2021/12/01 09:51:24;;;;;;;13.57;1.70;;;;;;;;;;5010752;28;20022;-96
2021/12/01 09:53:52;;;;;;;6.72;1.38;;;;;;;;;;5006781;28;20018;-96
2021/12/01 09:56:24;;;;;;;11.65;1.75;;;;;;;;;;5012261;28;20137;-96
2021/12/01 09:58:49;;;;;;;6.78;1.30;;;;;;;;;;5012342;28;20029;-96
2021/12/01 10:01:16;;;;;;;9.35;1.38;;;;;;;;;;5006760;28;20116;-96
2021/12/01 10:03:43;;;;;;;9.55;1.77;;;;;;;;;;5010316;28;20121;-95
2021/12/01 10:06:17;;;;;;;10.50;1.20;;;;;;;;;;5008495;28;20789;-96
2021/12/01 10:12:16;;;;;;;5.63;0.95;;;;;;;;;;5018713;28;20088;-96
2021/12/01 11:04:52;;;;;;;18.30;2.67;;;;;;;;;;5019149;23;20203;-96
2021/12/01 11:07:25;;;;;;;7.40;1.17;;;;;;;;;;4925252;29;20026;-96
2021/12/01 11:10:08;;;;;;;10.68;1.70;;;;;;;;;;4924734;29;20020;-96
2021/12/01 11:12:34;;;;;;;7.43;1.25;;;;;;;;;;4939058;28;20036;-96
2021/12/01 11:15:14;;;;;;;11.85;1.73;;;;;;;;;;4930474;29;20032;-96
2021/12/01 11:17:40;;;;;;;12.38;1.63;;;;;;;;;;4930046;29;20027;-96
2021/12/01 11:20:08;;;;;;;11.30;1.20;;;;;;;;;;4930227;29;20076;-96
2021/12/01 11:22:36;;;;;;;15.02;2.00;;;;;;;;;;4930699;29;20110;-96
2021/12/01 11:25:24;;;;;;;12.38;1.63;;;;;;;;;;4933151;29;20392;-96
2021/12/01 11:27:50;;;;;;;12.02;1.85;;;;;;;;;;4922978;29;20032;-96
2021/12/01 11:30:15;;;;;;;12.43;1.52;;;;;;;;;;4945163;28;20031;-96
2021/12/01 11:32:44;;;;;;;11.48;1.65;;;;;;;;;;4923232;29;20015;-96
2021/12/01 11:35:09;;;;;;;9.82;1.75;;;;;;;;;;4928524;29;20023;-94
2021/12/01 11:37:35;;;;;;;14.50;1.95;;;;;;;;;;4933735;29;20063;-96
2021/12/01 11:40:01;;;;;;;10.65;1.40;;;;;;;;;;4924734;29;20070;-96
2021/12/01 11:42:27;;;;;;;10.38;1.25;;;;;;;;;;4922888;29;20055;-95
2021/12/01 11:44:54;;;;;;;10.45;1.52;;;;;;;;;;4921569;29;20035;-96
2021/12/01 11:47:19;;;;;;;13.90;1.63;;;;;;;;;;4925263;29;20058;-96
2021/12/01 11:49:45;;;;;;;7.75;1.42;;;;;;;;;;4927624;29;20024;-96
2021/12/01 11:52:11;;;;;;;9.68;1.33;;;;;;;;;;4921767;29;20038;-95
2021/12/01 11:54:44;;;;;;;8.68;1.55;;;;;;;;;;4926192;29;20396;-96
2021/12/01 11:57:09;;;;;;;9.27;1.50;;;;;;;;;;4949158;28;20079;-95
2021/12/01 11:59:36;;;;;;;8.15;1.38;;;;;;;;;;4931866;29;20223;-95
2021/12/01 12:02:03;;;;;;;10.00;1.40;;;;;;;;;;4929341;29;20024;-95
2021/12/01 12:04:29;;;;;;;5.63;1.05;;;;;;;;;;4935556;29;20531;-95
2021/12/01 12:07:11;;;;;;;7.45;1.58;;;;;;;;;;4935383;29;20459;-96
2021/12/01 12:09:42;;;;;;;10.05;1.50;;;;;;;;;;4928635;29;20485;-96
2021/12/01 12:12:20;;;;;;;11.07;1.20;;;;;;;;;;4929952;29;20046;-96
2021/12/01 12:14:45;;;;;;;9.90;1.20;;;;;;;;;;4924213;29;20020;-96
2021/12/01 12:17:12;;;;;;;10.27;1.30;;;;;;;;;;4935064;28;20011;-96
2021/12/01 12:20:20;;;;;;;12.15;1.70;;;;;;;;;;5208902;23;20305;-96
2021/12/01 12:23:19;;;;;;;11.75;1.30;;;;;;;;;;4951686;29;20012;-96
2021/12/01 12:26:19;;;;;;;8.02;1.10;;;;;;;;;;4954485;29;20034;-96
2021/12/01 12:29:00;;;;;;;9.75;1.42;;;;;;;;;;4943214;29;20024;-96
2021/12/01 12:31:35;;;;;;;6.43;1.00;;;;;;;;;;4936619;29;20032;-96
2021/12/01 12:34:32;;;;;;;7.80;1.20;;;;;;;;;;4942496;29;20023;-96
2021/12/01 12:37:06;;;;;;;6.65;1.10;;;;;;;;;;4961183;28;20018;-96
2021/12/01 12:39:59;;;;;;;6.25;0.80;;;;;;;;;;4950249;29;20011;-96
2021/12/01 12:42:31;;;;;;;6.93;1.05;;;;;;;;;;4948330;29;20016;-96
2021/12/01 12:45:00;;;;;;;8.23;1.00;;;;;;;;;;4943917;29;20039;-96
2021/12/01 15:16:26;;;;;;;3.45;0.82;;;;;;;;;;1435397;23;20333;-96
2021/12/01 15:19:30;;;;;;;3.10;0.75;;;;;;;;;;4907013;29;20060;-96
2021/12/01 15:25:29;;;;;;;5.00;0.70;;;;;;;;;;4840643;29;20042;-96
2021/12/01 15:27:56;;;;;;;5.43;0.68;;;;;;;;;;4847834;29;20054;-96
2021/12/01 15:30:35;;;;;;;5.00;0.77;;;;;;;;;;4858822;29;20037;-96
2021/12/01 15:33:46;;;;;;;5.72;0.60;;;;;;;;;;4842127;29;20142;-96
2021/12/01 15:36:18;;;;;;;5.20;1.05;;;;;;;;;;4815644;29;20027;-96
2021/12/01 15:39:08;;;;;;;5.68;0.95;;;;;;;;;;4826198;29;20112;-96
2021/12/01 15:42:00;;;;;;;4.90;0.70;;;;;;;;;;4842868;29;20011;-96
2021/12/01 15:44:36;;;;;;;3.00;0.65;;;;;;;;;;4833002;29;20306;-96
2021/12/01 15:47:09;;;;;;;2.22;0.50;;;;;;;;;;4845981;29;20037;-96
2021/12/01 15:49:40;;;;;;;4.63;0.90;;;;;;;;;;4812179;29;20027;-96
2021/12/01 15:52:11;;;;;;;2.80;0.55;;;;;;;;;;4845036;29;20070;-96
2021/12/01 15:54:53;;;;;;;5.22;0.90;;;;;;;;;;4857108;29;20030;-96
2021/12/01 15:57:33;;;;;;;3.05;0.80;;;;;;;;;;4844843;29;20042;-96
2021/12/01 16:00:07;;;;;;;4.88;1.10;;;;;;;;;;4902075;29;20036;-96
2021/12/01 16:02:36;;;;;;;3.97;0.75;;;;;;;;;;4901320;29;20029;-96
2021/12/01 16:08:11;;;;;;;7.53;0.82;;;;;;;;;;4905762;29;20500;-96
2021/12/01 16:10:42;;;;;;;4.10;0.60;;;;;;;;;;4910205;29;20032;-96
2021/12/01 16:13:09;;;;;;;4.10;0.77;;;;;;;;;;4909465;29;20040;-96
2021/12/01 16:15:38;;;;;;;5.18;0.98;;;;;;;;;;4903190;29;20513;-96
2021/12/01 16:18:06;;;;;;;6.18;0.95;;;;;;;;;;4905721;29;20063;-96
2021/12/01 16:21:05;;;;;;;5.05;1.00;;;;;;;;;;4921747;29;20044;-96
2021/12/01 16:24:07;;;;;;;2.50;0.50;;;;;;;;;;4912712;29;20064;-96
2021/12/01 16:27:12;;;;;;;7.55;0.85;;;;;;;;;;4919099;29;20028;-96
2021/12/01 16:29:41;;;;;;;3.75;0.60;;;;;;;;;;4916251;29;20044;-96
2021/12/01 16:32:16;;;;;;;5.00;1.00;;;;;;;;;;4916443;29;20037;-96
2021/12/01 16:34:55;;;;;;;5.55;0.90;;;;;;;;;;4912522;29;20024;-96
2021/12/01 16:37:45;;;;;;;4.60;0.93;;;;;;;;;;4919653;29;20208;-96
2021/12/01 16:40:27;;;;;;;4.68;1.00;;;;;;;;;;4917612;29;20080;-96
2021/12/01 16:46:11;;;;;;;3.42;0.82;;;;;;;;;;4910644;29;20033;-96
2021/12/01 16:48:54;;;;;;;4.25;0.85;;;;;;;;;;4917399;29;20409;-96
2021/12/01 16:51:35;;;;;;;5.05;0.80;;;;;;;;;;4927522;29;20028;-96
2021/12/01 16:54:16;;;;;;;4.78;1.45;;;;;;;;;;4918613;29;20032;-96
2021/12/01 16:57:02;;;;;;;3.33;0.60;;;;;;;;;;4910316;29;20111;-96
2021/12/01 16:59:34;;;;;;;4.00;0.75;;;;;;;;;;4910503;29;20024;-96
2021/12/01 17:02:17;;;;;;;3.88;0.70;;;;;;;;;;4914964;29;20028;-96
2021/12/01 17:04:45;;;;;;;6.28;0.95;;;;;;;;;;4926779;29;20044;-96
2021/12/01 17:07:41;;;;;;;7.47;1.00;;;;;;;;;;4915206;29;20064;-96
2021/12/01 17:10:01;;;;;;;4.32;0.80;;;;;;;;;;4917578;29;20032;-96
2021/12/01 17:12:43;;;;;;;7.45;1.40;;;;;;;;;;4917750;29;20061;-96
2021/12/01 17:15:09;;;;;;;3.45;0.82;;;;;;;;;;4906291;29;20485;-96
2021/12/01 17:20:32;;;;;;;3.63;1.20;;;;;;;;;;4910956;29;20072;-96
2021/12/01 17:23:17;;;;;;;3.88;0.82;;;;;;;;;;4914799;29;20103;-96
2021/12/01 17:25:56;;;;;;;3.88;0.80;;;;;;;;;;4916898;29;20032;-96
2021/12/01 17:28:27;;;;;;;3.67;0.70;;;;;;;;;;4912920;29;20084;-96
2021/12/01 17:31:13;;;;;;;4.07;1.00;;;;;;;;;;4909076;29;20051;-96
2021/12/01 17:33:53;;;;;;;6.93;1.00;;;;;;;;;;4917828;29;20021;-96
2021/12/01 17:36:42;;;;;;;4.78;0.90;;;;;;;;;;4912740;29;20051;-96
2021/12/01 17:39:30;;;;;;;;;;;;;;;;;;;;;
2021/12/01 17:42:11;;;;;;;4.32;0.82;;;;;;;;;;4911310;29;20067;-96
2021/12/01 17:44:38;;;;;;;4.57;1.00;;;;;;;;;;4890846;29;20109;-96
2021/12/01 17:47:06;;;;;;;5.10;0.70;;;;;;;;;;4904658;29;20034;-96
2021/12/01 17:49:32;;;;;;;5.15;0.90;;;;;;;;;;4900755;29;20025;-96
2021/12/01 17:51:59;;;;;;;3.10;0.60;;;;;;;;;;4901642;29;20032;-96
2021/12/01 17:54:35;;;;;;;10.25;1.13;;;;;;;;;;4898672;29;20031;-96
2021/12/01 17:57:03;;;;;;;6.25;1.02;;;;;;;;;;4897691;29;20052;-96
2021/12/01 17:59:37;;;;;;;5.78;1.00;;;;;;;;;;4895286;29;20093;-96
2021/12/01 18:02:07;;;;;;;5.85;0.80;;;;;;;;;;4895935;29;20041;-96
2021/12/01 18:04:34;;;;;;;5.28;0.70;;;;;;;;;;4897682;29;20303;-96
2021/12/01 18:07:00;;;;;;;5.88;0.95;;;;;;;;;;4897882;29;20528;-96
2021/12/01 18:09:27;;;;;;;5.65;1.13;;;;;;;;;;4893748;29;20085;-96
2021/12/01 18:11:53;;;;;;;4.15;0.57;;;;;;;;;;4896225;29;20033;-96
2021/12/01 18:14:19;;;;;;;6.07;1.00;;;;;;;;;;4890666;29;20040;-96
2021/12/01 18:16:45;;;;;;;5.80;0.70;;;;;;;;;;4891681;29;20050;-96
2021/12/01 18:19:11;;;;;;;5.57;0.80;;;;;;;;;;4885081;29;20025;-96
2021/12/01 18:21:36;;;;;;;4.07;0.63;;;;;;;;;;4891826;29;20078;-96
2021/12/01 18:24:03;;;;;;;5.53;0.77;;;;;;;;;;4885665;29;20495;-96
2021/12/01 18:26:29;;;;;;;5.22;0.82;;;;;;;;;;4890409;29;20025;-96
2021/12/01 18:28:57;;;;;;;8.50;1.02;;;;;;;;;;4891855;29;20040;-94
2021/12/01 18:31:23;;;;;;;7.25;0.93;;;;;;;;;;4898685;29;20089;-96
2021/12/01 18:33:50;;;;;;;3.03;0.70;;;;;;;;;;4893239;29;20021;-95
2021/12/01 18:36:18;;;;;;;10.73;2.28;;;;;;;;;;4906046;29;20053;-95
2021/12/01 18:38:50;;;;;;;6.20;0.93;;;;;;;;;;4889438;29;20096;-96
2021/12/01 18:41:22;;;;;;;9.98;1.00;;;;;;;;;;4886657;29;20084;-96